createdAt,value
2017-06-21T00:01:54.487Z,23.78
2017-06-21T00:04:22.044Z,23.64
2017-06-21T00:06:49.581Z,23.74
2017-06-21T00:09:17.255Z,23.59
2017-06-21T00:11:44.769Z,23.41
2017-06-21T00:14:12.277Z,23.83
2017-06-21T00:16:39.885Z,23.52
2017-06-21T00:19:07.423Z,23.51
2017-06-21T00:21:35.111Z,23.40
2017-06-21T00:24:02.623Z,23.33
2017-06-21T00:26:30.139Z,23.36
2017-06-21T00:28:57.770Z,23.36
2017-06-21T00:31:25.292Z,23.21
2017-06-21T00:33:52.866Z,23.14
2017-06-21T00:36:20.376Z,23.07
2017-06-21T00:38:47.967Z,22.90
2017-06-21T00:41:15.490Z,22.97
2017-06-21T00:43:43.182Z,22.70
2017-06-21T00:46:10.700Z,22.77
2017-06-21T00:48:38.215Z,22.77
2017-06-21T00:51:05.835Z,22.77
2017-06-21T00:53:33.371Z,22.97
2017-06-21T00:56:01.063Z,22.70
2017-06-21T00:58:28.575Z,22.87
2017-06-21T01:00:56.256Z,23.07
2017-06-21T01:03:23.763Z,22.77
2017-06-21T01:05:51.292Z,22.87
2017-06-21T01:08:18.839Z,22.96
2017-06-21T01:10:46.360Z,23.32
2017-06-21T01:13:14.094Z,23.02
2017-06-21T01:15:41.707Z,22.92
2017-06-21T01:18:09.216Z,22.70
2017-06-21T01:20:36.784Z,22.68
2017-06-21T01:23:04.294Z,22.66
2017-06-21T01:25:32.015Z,22.50
2017-06-21T01:27:59.679Z,22.56
2017-06-21T01:30:27.211Z,22.43
2017-06-21T01:32:54.899Z,22.50
2017-06-21T01:35:22.438Z,22.61
2017-06-21T01:37:50.163Z,22.51
2017-06-21T01:40:17.744Z,22.45
2017-06-21T01:42:45.251Z,22.33
2017-06-21T01:45:12.800Z,22.38
2017-06-21T01:47:40.322Z,22.22
2017-06-21T01:50:07.881Z,22.25
2017-06-21T01:52:35.387Z,22.18
2017-06-21T01:55:03.035Z,22.09
2017-06-21T01:57:30.552Z,21.97
2017-06-21T01:59:58.074Z,22.06
2017-06-21T02:02:25.651Z,22.22
2017-06-21T02:04:53.183Z,22.06
2017-06-21T02:07:20.871Z,21.88
2017-06-21T02:09:48.391Z,21.76
2017-06-21T02:12:15.909Z,21.74
2017-06-21T02:14:43.459Z,21.67
2017-06-21T02:17:10.962Z,21.73
2017-06-21T02:19:38.515Z,21.81
2017-06-21T02:22:06.043Z,21.71
2017-06-21T02:24:33.859Z,21.50
2017-06-21T02:27:01.367Z,21.47
2017-06-21T02:29:28.880Z,21.57
2017-06-21T02:31:56.435Z,21.63
2017-06-21T02:34:23.959Z,21.51
2017-06-21T02:36:51.503Z,21.69
2017-06-21T02:39:19.015Z,21.57
2017-06-21T02:41:46.565Z,21.46
2017-06-21T02:44:14.131Z,21.56
2017-06-21T02:46:41.800Z,21.67
2017-06-21T02:49:09.328Z,21.66
2017-06-21T02:51:36.848Z,21.51
2017-06-21T02:54:04.398Z,21.72
2017-06-21T02:56:31.929Z,21.59
2017-06-21T02:58:59.491Z,21.42
2017-06-21T03:01:26.998Z,21.35
2017-06-21T03:03:54.725Z,21.32
2017-06-21T03:06:22.235Z,21.33
2017-06-21T03:08:49.764Z,21.43
2017-06-21T03:11:17.347Z,21.33
2017-06-21T03:13:44.867Z,21.25
2017-06-21T03:16:12.475Z,21.12
2017-06-21T03:18:39.998Z,21.14
2017-06-21T03:21:07.647Z,21.10
2017-06-21T03:23:35.195Z,21.00
2017-06-21T03:26:02.716Z,20.98
2017-06-21T03:28:30.254Z,21.06
2017-06-21T03:30:57.822Z,21.09
2017-06-21T03:33:25.399Z,21.09
2017-06-21T03:35:52.911Z,21.04
2017-06-21T03:38:20.466Z,21.23
2017-06-21T03:40:47.986Z,21.30
2017-06-21T03:43:15.526Z,21.09
2017-06-21T03:45:43.141Z,21.67
2017-06-21T03:48:10.800Z,21.83
2017-06-21T03:50:38.306Z,21.51
2017-06-21T03:53:05.820Z,21.91
2017-06-21T03:55:33.405Z,21.96
2017-06-21T03:58:00.906Z,21.82
2017-06-21T04:00:28.446Z,21.43
2017-06-21T04:02:55.964Z,21.15
2017-06-21T04:05:23.523Z,21.01
2017-06-21T04:07:51.039Z,21.37
2017-06-21T04:10:18.686Z,21.08
2017-06-21T04:12:46.217Z,21.38
2017-06-21T04:15:13.742Z,20.98
2017-06-21T04:17:41.359Z,21.05
2017-06-21T04:20:08.867Z,21.27
2017-06-21T04:22:36.530Z,21.44
2017-06-21T04:25:04.039Z,21.52
2017-06-21T04:27:31.621Z,21.34
2017-06-21T04:29:59.279Z,21.37
2017-06-21T04:32:26.820Z,-138.21
2017-06-21T04:34:54.406Z,-138.21
2017-06-21T04:37:21.936Z,-138.21
2017-06-21T04:39:49.524Z,-138.21
2017-06-21T04:42:17.094Z,-138.21
2017-06-21T04:44:44.675Z,-138.21
2017-06-21T04:47:12.222Z,-138.21
2017-06-21T04:49:39.815Z,-138.21
2017-06-21T04:52:07.351Z,-138.21
2017-06-21T04:54:34.983Z,-138.21
2017-06-21T04:57:02.567Z,-138.21
2017-06-21T04:59:30.103Z,-138.21
2017-06-21T05:01:57.671Z,-138.21
2017-06-21T05:04:25.195Z,-138.21
2017-06-21T05:06:52.863Z,-138.21
2017-06-21T05:09:20.383Z,-138.21
2017-06-21T05:11:47.947Z,-138.21
2017-06-21T05:14:15.595Z,-138.21
2017-06-21T05:16:43.127Z,-138.21
2017-06-21T05:19:10.707Z,-138.21
2017-06-21T05:21:38.311Z,-138.21
2017-06-21T05:24:06.042Z,-138.21
2017-06-21T05:26:33.567Z,-138.21
2017-06-21T05:29:01.125Z,-138.21
2017-06-21T05:31:28.697Z,-138.21
2017-06-21T05:33:56.266Z,-138.21
2017-06-21T05:36:23.819Z,-138.21
2017-06-21T05:38:51.396Z,-138.21
2017-06-21T05:41:18.963Z,-138.21
2017-06-21T05:43:46.492Z,-138.21
2017-06-21T05:46:14.255Z,-138.21
2017-06-21T05:48:41.827Z,-138.21
2017-06-21T05:51:09.348Z,-138.21
2017-06-21T05:53:36.924Z,-138.21
2017-06-21T05:56:04.564Z,-138.21
2017-06-21T05:58:32.202Z,-138.21
2017-06-21T06:00:59.717Z,-138.21
2017-06-21T06:03:27.412Z,-138.21
2017-06-21T06:05:54.939Z,-138.21
2017-06-21T06:08:22.624Z,-138.21
2017-06-21T06:10:50.155Z,-138.21
2017-06-21T06:13:17.697Z,-138.21
2017-06-21T06:15:45.271Z,-138.21
2017-06-21T06:18:12.778Z,-138.21
2017-06-21T06:20:40.343Z,-138.21
2017-06-21T06:23:07.859Z,-138.21
2017-06-21T06:25:35.807Z,-138.21
2017-06-21T06:28:03.324Z,-138.21
2017-06-21T06:30:30.867Z,-138.21
2017-06-21T06:32:58.432Z,-138.21
2017-06-21T06:35:26.063Z,-138.21
2017-06-21T06:37:53.642Z,-138.21
2017-06-21T06:40:21.207Z,-138.21
2017-06-21T06:42:49.070Z,-138.21
2017-06-21T06:45:16.618Z,-138.21
2017-06-21T06:47:44.132Z,-138.21
2017-06-21T06:50:11.703Z,-138.21
2017-06-21T06:52:39.239Z,-138.21
2017-06-21T06:55:06.807Z,-138.21
2017-06-21T06:57:34.384Z,-138.21
2017-06-21T07:00:01.970Z,-138.21
2017-06-21T07:02:29.503Z,-138.21
2017-06-21T07:04:57.067Z,-138.21
2017-06-21T07:07:24.639Z,-138.21
2017-06-21T07:09:52.197Z,-138.21
2017-06-21T07:12:19.723Z,-138.21
2017-06-21T07:14:47.529Z,-138.21
2017-06-21T07:17:15.044Z,-138.21
2017-06-21T07:19:42.563Z,-138.21
2017-06-21T07:22:10.137Z,-138.21
2017-06-21T07:24:37.671Z,-138.21
2017-06-21T07:27:05.267Z,-138.21
2017-06-21T07:29:32.811Z,-138.21
2017-06-21T07:32:00.591Z,-138.21
2017-06-21T07:34:28.170Z,-138.21
2017-06-21T07:36:55.694Z,-138.21
2017-06-21T07:39:23.269Z,-138.21
2017-06-21T07:41:50.803Z,-138.21
2017-06-21T07:44:18.402Z,-138.21
2017-06-21T07:46:45.928Z,-138.21
2017-06-21T07:49:13.513Z,-138.21
2017-06-21T07:51:41.047Z,-138.21
2017-06-21T07:54:09.538Z,-138.21
2017-06-21T07:56:37.072Z,-138.21
2017-06-21T07:59:04.617Z,-138.21
2017-06-21T08:01:32.196Z,-138.21
2017-06-21T08:03:59.768Z,-138.21
2017-06-21T08:06:27.371Z,-138.21
2017-06-21T08:08:54.891Z,-138.21
2017-06-21T08:11:22.763Z,-138.21
2017-06-21T08:13:50.667Z,-138.21
2017-06-21T08:16:18.210Z,-138.21
2017-06-21T08:18:45.778Z,-138.21
2017-06-21T08:21:13.303Z,-138.21
2017-06-21T08:23:40.962Z,-138.21
2017-06-21T08:26:08.523Z,-138.21
2017-06-21T08:28:36.051Z,-138.21
2017-06-21T08:31:03.615Z,-138.21
2017-06-21T08:33:31.140Z,-138.21
2017-06-21T08:35:59.055Z,-138.21
2017-06-21T08:38:26.598Z,-138.21
2017-06-21T08:40:54.137Z,-138.21
2017-06-21T08:43:21.719Z,-138.21
2017-06-21T08:45:49.881Z,-138.21
2017-06-21T08:48:17.449Z,-138.21
2017-06-21T08:50:44.979Z,-138.21
2017-06-21T08:53:12.639Z,-138.21
2017-06-21T08:55:40.170Z,-138.21
2017-06-21T08:58:07.707Z,-138.21
2017-06-21T09:00:35.279Z,-138.21
2017-06-21T09:03:02.822Z,-138.21
2017-06-21T09:05:30.495Z,-138.21
2017-06-21T09:07:58.019Z,-138.21
2017-06-21T09:10:25.551Z,-138.21
2017-06-21T09:12:53.111Z,-138.21
2017-06-21T09:15:21.004Z,-138.21
2017-06-21T09:17:48.563Z,-138.21
2017-06-21T09:20:16.954Z,-138.21
2017-06-21T09:22:44.560Z,-138.21
2017-06-21T09:25:12.183Z,-138.21
2017-06-21T09:27:39.835Z,-138.21
2017-06-21T09:30:07.356Z,-138.21
2017-06-21T09:32:34.934Z,-138.21
2017-06-21T09:35:02.458Z,-138.21
2017-06-21T09:37:30.002Z,-138.21
2017-06-21T09:39:57.554Z,-138.21
2017-06-21T09:42:25.083Z,-138.21
2017-06-21T09:44:52.631Z,-138.21
2017-06-21T09:47:20.168Z,-138.21
2017-06-21T09:49:47.722Z,-138.21
2017-06-21T09:52:15.268Z,-138.21
2017-06-21T09:54:42.811Z,-138.21
2017-06-21T09:57:10.344Z,-138.21
2017-06-21T09:59:37.915Z,-138.21
2017-06-21T10:02:05.441Z,-138.21
2017-06-21T10:04:33.014Z,-138.21
2017-06-21T10:07:00.555Z,-138.21
2017-06-21T10:09:28.107Z,-138.21
2017-06-21T10:11:55.632Z,-138.21
2017-06-21T10:14:23.183Z,-138.21
2017-06-21T10:16:50.713Z,-138.21
2017-06-21T10:19:18.443Z,-138.21
2017-06-21T10:21:46.022Z,-138.21
2017-06-21T10:24:13.648Z,-138.21
2017-06-21T10:26:41.176Z,-138.21
2017-06-21T10:29:08.818Z,-138.21
2017-06-21T10:31:36.347Z,-138.21
2017-06-21T10:34:03.947Z,-138.21
2017-06-21T10:36:31.575Z,-138.21
2017-06-21T10:38:59.111Z,-138.21
2017-06-21T10:41:26.685Z,-138.21
2017-06-21T10:43:54.312Z,-138.21
2017-06-21T10:46:21.877Z,-138.21
2017-06-21T10:48:49.401Z,-138.21
2017-06-21T10:51:16.932Z,-138.21
2017-06-21T10:53:44.490Z,-138.21
2017-06-21T10:56:12.027Z,-138.21
2017-06-21T10:58:39.598Z,-138.21
2017-06-21T11:01:07.123Z,-138.21
2017-06-21T11:03:34.679Z,-138.21
2017-06-21T11:06:02.198Z,-138.21
2017-06-21T11:08:29.783Z,-138.21
2017-06-21T11:10:57.296Z,-138.21
2017-06-21T11:13:24.891Z,-138.21
2017-06-21T11:15:52.426Z,-138.21
2017-06-21T11:18:19.982Z,-138.21
2017-06-21T11:20:47.506Z,-138.21
2017-06-21T11:23:15.036Z,-138.21
2017-06-21T11:25:42.602Z,-138.21
2017-06-21T11:28:10.114Z,-138.21
2017-06-21T11:30:37.682Z,-138.21
2017-06-21T11:33:05.212Z,-138.21
2017-06-21T11:35:32.763Z,-138.21
2017-06-21T11:38:00.284Z,-138.21
2017-06-21T11:40:27.834Z,-138.21
2017-06-21T11:42:55.363Z,-138.21
2017-06-21T11:45:22.970Z,-138.21
2017-06-21T11:47:50.495Z,-138.21
2017-06-21T11:50:18.056Z,-138.21
2017-06-21T11:52:45.587Z,-138.21
2017-06-21T11:55:13.146Z,-138.21
2017-06-21T11:57:40.667Z,-138.21
2017-06-21T12:00:08.223Z,-138.21
2017-06-21T12:02:35.772Z,-138.21
2017-06-21T12:05:03.332Z,-138.21
2017-06-21T12:07:30.863Z,-138.21
2017-06-21T12:09:58.418Z,-138.21
2017-06-21T12:12:25.951Z,-138.21
2017-06-21T12:14:53.519Z,-138.21
2017-06-21T12:17:21.043Z,-138.21
2017-06-21T12:19:48.610Z,-138.21
2017-06-21T12:22:16.151Z,-138.21
2017-06-21T12:24:43.702Z,-138.21
2017-06-21T12:27:11.231Z,-138.21
2017-06-21T12:29:39.119Z,-138.21
2017-06-21T12:32:06.639Z,-138.21
2017-06-21T12:34:34.166Z,-138.21
2017-06-21T12:37:01.719Z,-138.21
2017-06-21T12:39:29.257Z,-138.21
2017-06-21T12:41:56.805Z,-138.21
2017-06-21T12:44:24.330Z,-138.21
2017-06-21T12:46:51.909Z,-138.21
2017-06-21T12:49:19.445Z,-138.21
2017-06-21T12:51:46.995Z,-138.21
2017-06-21T12:54:14.546Z,-138.21
2017-06-21T12:56:42.135Z,-138.21
2017-06-21T12:59:09.659Z,-138.21
2017-06-21T13:01:37.211Z,-138.21
2017-06-21T13:04:04.747Z,-138.21
2017-06-21T13:06:32.310Z,-138.21
2017-06-21T13:08:59.863Z,-138.21
2017-06-21T13:11:27.423Z,-138.21
2017-06-21T13:13:54.972Z,-138.21
2017-06-21T13:16:22.535Z,-138.21
2017-06-21T13:18:50.131Z,-138.21
2017-06-21T13:21:17.672Z,-138.21
2017-06-21T13:23:45.311Z,-138.21
2017-06-21T13:26:12.838Z,-138.21
2017-06-21T13:28:40.403Z,-138.21
2017-06-21T13:31:07.927Z,-138.21
2017-06-21T13:33:35.476Z,-138.21
2017-06-21T13:36:03.035Z,-138.21
2017-06-21T13:38:30.607Z,-138.21
2017-06-21T13:40:58.163Z,-138.21
2017-06-21T13:43:25.687Z,-138.21
2017-06-21T13:45:53.243Z,-138.21
2017-06-21T13:48:20.772Z,-138.21
2017-06-21T13:50:48.325Z,-138.21
2017-06-21T13:53:15.927Z,-138.21
2017-06-21T13:55:43.471Z,-138.21
2017-06-21T13:58:10.990Z,-138.21
2017-06-21T14:00:38.562Z,-138.21
2017-06-21T14:03:06.122Z,-138.21
2017-06-21T14:05:33.698Z,-138.21
2017-06-21T14:08:01.244Z,-138.21
2017-06-21T14:10:28.807Z,-138.21
2017-06-21T14:12:56.328Z,-138.21
2017-06-21T14:15:23.891Z,-138.21
2017-06-21T14:17:51.435Z,-138.21
2017-06-21T14:20:18.993Z,-138.21
2017-06-21T14:22:46.532Z,-138.21
2017-06-21T14:25:14.054Z,-138.21
2017-06-21T14:27:41.599Z,-138.21
2017-06-21T14:30:09.167Z,-138.21
2017-06-21T14:32:36.716Z,-138.21
2017-06-21T14:35:04.248Z,-138.21
2017-06-21T14:37:31.841Z,-138.21
2017-06-21T14:39:59.375Z,-138.21
2017-06-21T14:42:26.950Z,-138.21
2017-06-21T14:44:54.482Z,-138.21
2017-06-21T14:47:22.003Z,-138.21
2017-06-21T14:49:49.562Z,-138.21
2017-06-21T14:52:17.106Z,-138.21
2017-06-21T14:54:44.658Z,-138.21
2017-06-21T14:57:12.198Z,-138.21
2017-06-21T14:59:39.735Z,-138.21
2017-06-21T15:02:07.288Z,-138.21
2017-06-21T15:04:35.203Z,-138.21
2017-06-21T15:07:02.767Z,-138.21
2017-06-21T15:09:30.291Z,-138.21
2017-06-21T15:11:57.923Z,-138.21
2017-06-21T15:14:25.454Z,-138.21
2017-06-21T15:16:53.007Z,-138.21
2017-06-21T15:19:20.539Z,-138.21
2017-06-21T15:21:48.134Z,-138.21
2017-06-21T15:24:15.679Z,-138.21
2017-06-21T15:26:43.240Z,-138.21
2017-06-21T15:29:10.764Z,-138.21
2017-06-21T15:31:38.314Z,-138.21
2017-06-21T15:34:05.826Z,-138.21
2017-06-21T15:36:33.383Z,-138.21
2017-06-21T15:39:00.909Z,-138.21
2017-06-21T15:41:28.473Z,-138.21
2017-06-21T15:43:56.008Z,-138.21
2017-06-21T15:46:23.601Z,-138.21
2017-06-21T15:48:51.135Z,-138.21
2017-06-21T15:51:18.647Z,-138.21
2017-06-21T15:53:46.211Z,-138.21
2017-06-21T15:56:13.763Z,-138.21
2017-06-21T15:58:41.286Z,-138.21
2017-06-21T16:01:08.835Z,-138.21
2017-06-21T16:03:36.361Z,-138.21
2017-06-21T16:06:03.962Z,-138.21
2017-06-21T16:08:31.479Z,-138.21
2017-06-21T16:10:59.079Z,-138.21
2017-06-21T16:13:26.623Z,-138.21
2017-06-21T16:15:54.340Z,-138.21
2017-06-21T16:18:21.892Z,-138.21
2017-06-21T16:20:49.417Z,-138.21
2017-06-21T16:23:17.169Z,-138.21
2017-06-21T16:25:44.694Z,-138.21
2017-06-21T16:28:12.288Z,-138.21
2017-06-21T16:30:39.786Z,-138.21
2017-06-21T16:33:07.500Z,-138.21
2017-06-21T16:35:35.043Z,-138.21
2017-06-21T16:38:02.750Z,-138.21
2017-06-21T16:40:30.343Z,-138.21
2017-06-21T16:42:57.875Z,-138.21
2017-06-21T16:45:25.459Z,-138.21
2017-06-21T16:47:52.992Z,-138.21
2017-06-21T16:50:20.618Z,-138.21
2017-06-21T16:52:48.160Z,-138.21
2017-06-21T16:55:15.880Z,-138.21
2017-06-21T16:57:43.426Z,-138.21
2017-06-21T17:00:10.947Z,-138.21
2017-06-21T17:02:38.544Z,-138.21
2017-06-21T17:05:06.142Z,-138.21
2017-06-21T17:07:33.734Z,-138.21
2017-06-21T17:10:01.287Z,-138.21
2017-06-21T17:12:28.878Z,-138.21
2017-06-21T17:14:56.411Z,-138.21
2017-06-21T17:17:23.951Z,-138.21
2017-06-21T17:19:51.527Z,-138.21
2017-06-21T17:22:19.062Z,-138.21
2017-06-21T17:24:46.627Z,-138.21
2017-06-21T17:27:14.159Z,-138.21
2017-06-21T17:29:41.745Z,-138.21
2017-06-21T17:32:09.358Z,-138.21
2017-06-21T17:34:37.406Z,-138.21
2017-06-21T17:37:04.930Z,-138.21
2017-06-21T17:39:32.480Z,-138.21
2017-06-21T17:42:00.044Z,-138.21
2017-06-21T17:44:27.586Z,-138.21
2017-06-21T17:46:55.155Z,-138.21
2017-06-21T17:49:22.686Z,-138.21
2017-06-21T17:51:50.267Z,-138.21
2017-06-21T17:54:17.803Z,-138.21
2017-06-21T17:56:45.560Z,-138.21
2017-06-21T17:59:13.117Z,-138.21
2017-06-21T18:01:40.652Z,-138.21
2017-06-21T18:04:08.221Z,-138.21
2017-06-21T18:06:35.871Z,-138.21
2017-06-21T18:09:03.542Z,-138.21
2017-06-21T18:11:31.089Z,-138.21
2017-06-21T18:13:58.655Z,-138.21
2017-06-21T18:16:26.256Z,-138.21
2017-06-21T18:18:53.839Z,-138.21
2017-06-21T18:21:21.573Z,-138.21
2017-06-21T18:23:49.122Z,-138.21
2017-06-21T18:26:16.644Z,-138.21
2017-06-21T18:28:44.214Z,-138.21
2017-06-21T18:31:11.740Z,-138.21
2017-06-21T18:33:39.584Z,-138.21
2017-06-21T18:36:07.128Z,-138.21
2017-06-21T18:38:34.798Z,-138.21
2017-06-21T18:41:02.397Z,-138.21
2017-06-21T18:43:30.010Z,-138.21
2017-06-21T18:45:57.607Z,-138.21
2017-06-21T18:48:25.283Z,-138.21
2017-06-21T18:50:52.896Z,-138.21
2017-06-21T18:53:20.463Z,-138.21
2017-06-21T18:55:48.047Z,-138.21
2017-06-21T18:58:15.592Z,-138.21
2017-06-21T19:00:43.203Z,-138.21
2017-06-21T19:03:10.735Z,-138.21
2017-06-21T19:05:38.330Z,-138.21
2017-06-21T19:09:18.379Z,31.98
2017-06-21T19:11:46.049Z,32.30
2017-06-21T19:14:13.595Z,32.40
2017-06-21T19:16:41.129Z,32.28
2017-06-21T19:19:08.691Z,31.88
2017-06-21T19:21:36.303Z,31.70
2017-06-21T19:24:03.851Z,31.70
2017-06-21T19:26:31.402Z,31.67
2017-06-21T19:28:59.561Z,31.35
2017-06-21T19:31:27.092Z,31.34
2017-06-21T19:33:54.791Z,31.27
2017-06-21T19:36:22.324Z,30.89
2017-06-21T19:38:49.856Z,30.81
2017-06-21T19:41:17.516Z,31.09
2017-06-21T19:43:45.050Z,30.86
2017-06-21T19:46:12.613Z,30.85
2017-06-21T19:48:40.143Z,30.75
2017-06-21T19:51:07.699Z,30.51
2017-06-21T19:53:35.223Z,30.41
2017-06-21T19:56:02.798Z,30.27
2017-06-21T19:58:30.379Z,30.27
2017-06-21T20:00:58.262Z,30.21
2017-06-21T20:03:25.871Z,30.17
2017-06-21T20:05:53.411Z,30.20
2017-06-21T20:08:20.959Z,30.09
2017-06-21T20:10:48.488Z,30.11
2017-06-21T20:13:16.032Z,29.99
2017-06-21T20:15:43.623Z,29.84
2017-06-21T20:18:11.141Z,29.96
2017-06-21T20:20:38.699Z,29.73
2017-06-21T20:23:06.220Z,29.80
2017-06-21T20:25:33.735Z,29.60
2017-06-21T20:28:01.287Z,29.47
2017-06-21T20:30:28.840Z,29.62
2017-06-21T20:32:56.364Z,29.43
2017-06-21T20:35:23.890Z,29.34
2017-06-21T20:37:51.428Z,29.19
2017-06-21T20:40:18.943Z,29.20
2017-06-21T20:42:46.625Z,29.03
2017-06-21T20:45:14.151Z,28.74
2017-06-21T20:47:41.677Z,28.83
2017-06-21T20:50:09.235Z,28.83
2017-06-21T20:52:36.739Z,28.91
2017-06-21T20:55:04.295Z,28.80
2017-06-21T20:57:31.820Z,29.05
2017-06-21T20:59:59.398Z,28.79
2017-06-21T21:02:26.900Z,28.77
2017-06-21T21:04:54.766Z,28.67
2017-06-21T21:07:22.352Z,28.52
2017-06-21T21:09:49.867Z,28.40
2017-06-21T21:12:17.452Z,28.57
2017-06-21T21:14:44.983Z,28.50
2017-06-21T21:17:12.644Z,28.56
2017-06-21T21:19:40.161Z,28.42
2017-06-21T21:22:07.904Z,28.30
2017-06-21T21:24:35.473Z,28.25
2017-06-21T21:27:02.985Z,28.31
2017-06-21T21:29:30.544Z,28.28
2017-06-21T21:31:58.061Z,28.16
2017-06-21T21:34:25.746Z,28.14
2017-06-21T21:36:53.278Z,28.03
2017-06-21T21:39:20.810Z,28.04
2017-06-21T21:41:48.375Z,27.91
2017-06-21T21:44:15.891Z,27.88
2017-06-21T21:46:43.472Z,27.84
2017-06-21T21:49:10.987Z,27.75
2017-06-21T21:51:38.680Z,27.82
2017-06-21T21:54:06.207Z,27.75
2017-06-21T21:56:33.728Z,27.72
2017-06-21T21:59:01.347Z,27.81
2017-06-21T22:01:28.905Z,27.67
2017-06-21T22:03:56.611Z,27.56
2017-06-21T22:06:24.234Z,27.44
2017-06-21T22:08:51.746Z,27.43
2017-06-21T22:11:19.304Z,27.42
2017-06-21T22:13:46.811Z,27.40
2017-06-21T22:16:14.515Z,27.42
2017-06-21T22:18:42.123Z,27.28
2017-06-21T22:21:09.634Z,27.32
2017-06-21T22:23:37.192Z,27.23
2017-06-21T22:26:04.698Z,27.10
2017-06-21T22:28:32.275Z,27.34
2017-06-21T22:30:59.787Z,27.23
2017-06-21T22:33:27.557Z,27.15
2017-06-21T22:35:55.062Z,27.07
2017-06-21T22:38:22.624Z,27.07
2017-06-21T22:40:50.178Z,26.98
2017-06-21T22:43:17.700Z,26.94
2017-06-21T22:45:45.255Z,26.82
2017-06-21T22:48:12.784Z,26.97
2017-06-21T22:50:40.551Z,27.22
2017-06-21T22:53:08.062Z,26.84
2017-06-21T22:55:35.575Z,26.74
2017-06-21T22:58:03.111Z,26.69
2017-06-21T23:00:30.662Z,26.51
2017-06-21T23:02:58.207Z,26.49
2017-06-21T23:05:25.723Z,26.42
2017-06-21T23:07:53.283Z,26.39
2017-06-21T23:10:20.806Z,26.41
2017-06-21T23:12:48.355Z,26.31
2017-06-21T23:15:15.875Z,26.26
2017-06-21T23:17:43.433Z,26.37
2017-06-21T23:20:10.947Z,26.31
2017-06-21T23:22:38.808Z,26.25
2017-06-21T23:25:06.308Z,26.23
2017-06-21T23:27:33.860Z,26.16
2017-06-21T23:30:01.406Z,25.85
2017-06-21T23:32:28.943Z,25.79
2017-06-21T23:34:56.666Z,26.09
2017-06-21T23:37:24.178Z,25.95
2017-06-21T23:39:51.744Z,25.92
2017-06-21T23:42:19.254Z,25.81
2017-06-21T23:44:46.795Z,26.10
2017-06-21T23:47:14.390Z,26.42
2017-06-21T23:49:42.051Z,26.61
2017-06-21T23:52:09.570Z,26.07
2017-06-21T23:54:37.083Z,25.89
2017-06-21T23:57:04.631Z,25.78
2017-06-21T23:59:32.195Z,25.65
